createdAt,value
2018-06-21T00:03:01.401Z,17.0
2018-06-21T00:08:01.526Z,16.6
2018-06-21T00:13:01.373Z,17.6
2018-06-21T00:18:01.489Z,18.0
2018-06-21T00:23:01.443Z,18.3
2018-06-21T00:28:01.442Z,17.6
2018-06-21T00:33:01.418Z,17.0
2018-06-21T00:38:01.614Z,17.1
2018-06-21T00:43:01.417Z,17.2
2018-06-21T00:54:01.474Z,19.2
2018-06-21T00:59:01.449Z,20.0
2018-06-21T01:04:01.348Z,19.9
2018-06-21T01:09:11.447Z,18.4
2018-06-21T01:14:01.458Z,17.0
2018-06-21T01:19:01.508Z,15.1
2018-06-21T01:24:01.372Z,13.4
2018-06-21T01:29:06.488Z,12.0
2018-06-21T01:34:01.378Z,11.8
2018-06-21T01:39:01.383Z,10.9
2018-06-21T01:44:01.381Z,10.6
2018-06-21T01:54:01.447Z,10.4
2018-06-21T02:09:03.817Z,8.4
2018-06-21T02:14:01.438Z,7.8
2018-06-21T02:19:01.452Z,7.0
2018-06-21T02:24:06.348Z,6.7
2018-06-21T02:29:01.534Z,6.3
2018-06-21T02:34:01.386Z,5.9
2018-06-21T02:39:01.454Z,5.0
2018-06-21T02:45:01.430Z,4.7
2018-06-21T02:50:01.444Z,4.3
2018-06-21T02:55:01.344Z,3.8
2018-06-21T03:00:01.440Z,3.7
2018-06-21T03:05:01.385Z,3.9
2018-06-21T03:10:01.453Z,3.8
2018-06-21T03:15:01.379Z,3.8
2018-06-21T03:20:01.381Z,4.0
2018-06-21T03:30:01.536Z,3.9
2018-06-21T03:35:01.348Z,3.9
2018-06-21T03:40:01.885Z,4.0
2018-06-21T03:45:01.372Z,3.9
2018-06-21T04:00:01.526Z,4.0
2018-06-21T04:05:01.389Z,3.9
2018-06-21T04:10:01.451Z,3.8
2018-06-21T04:15:01.336Z,3.8
2018-06-21T04:20:01.882Z,4.1
2018-06-21T04:25:06.408Z,3.9
2018-06-21T04:30:01.602Z,3.8
2018-06-21T04:35:01.351Z,3.9
2018-06-21T04:45:06.510Z,3.5
2018-06-21T04:50:01.444Z,3.8
2018-06-21T04:55:06.392Z,4.0
2018-06-21T05:01:01.891Z,3.8
2018-06-21T05:06:01.382Z,4.0
2018-06-21T05:11:01.525Z,3.9
2018-06-21T05:16:02.534Z,3.5
2018-06-21T05:21:01.412Z,3.3
2018-06-21T05:26:01.644Z,3.3
2018-06-21T05:31:01.454Z,2.9
2018-06-21T05:36:06.388Z,3.3
2018-06-21T05:51:01.510Z,3.3
2018-06-21T06:01:01.409Z,3.1
2018-06-21T06:11:03.437Z,3.2
2018-06-21T06:21:01.746Z,3.0
2018-06-21T06:26:01.458Z,3.1
2018-06-21T06:31:01.440Z,3.0
2018-06-21T06:36:01.383Z,3.1
2018-06-21T06:41:01.384Z,3.1
2018-06-21T06:51:01.490Z,2.8
2018-06-21T06:56:01.443Z,3.1
2018-06-21T07:06:02.469Z,3.2
2018-06-21T07:11:01.426Z,3.2
2018-06-21T07:16:01.379Z,3.3
2018-06-21T07:21:06.443Z,3.2
2018-06-21T07:26:01.478Z,3.0
2018-06-21T07:31:01.507Z,3.4
2018-06-21T07:36:01.353Z,3.3
2018-06-21T07:41:01.552Z,3.6
2018-06-21T07:46:01.352Z,3.9
2018-06-21T07:56:01.439Z,3.5
2018-06-21T08:01:01.515Z,3.7
2018-06-21T08:06:06.378Z,3.7
2018-06-21T08:11:01.511Z,3.6
2018-06-21T08:16:01.379Z,3.8
2018-06-21T08:21:06.510Z,4.0
2018-06-21T08:26:01.402Z,4.2
2018-06-21T08:31:01.583Z,4.0
2018-06-21T08:42:01.505Z,4.0
2018-06-21T08:47:06.376Z,3.7
2018-06-21T08:52:01.526Z,3.6
2018-06-21T08:57:01.581Z,3.9
2018-06-21T09:02:06.487Z,3.5
2018-06-21T09:07:01.381Z,3.3
2018-06-21T09:12:01.389Z,3.4
2018-06-21T09:18:01.819Z,3.2
2018-06-21T09:23:01.426Z,2.8
2018-06-21T09:33:01.475Z,2.7
2018-06-21T09:38:11.457Z,2.4
2018-06-21T09:43:01.390Z,2.2
2018-06-21T09:48:01.840Z,2.1
2018-06-21T09:58:01.440Z,2.0
2018-06-21T10:08:01.512Z,2.2
2018-06-21T10:13:02.512Z,2.4
2018-06-21T10:18:01.517Z,2.8
2018-06-21T10:23:01.802Z,3.2
2018-06-21T10:28:06.470Z,3.4
2018-06-21T10:33:01.374Z,3.5
2018-06-21T10:38:01.440Z,3.6
2018-06-21T10:43:01.735Z,3.5
2018-06-21T10:48:06.618Z,3.4
2018-06-21T10:53:06.418Z,3.6
2018-06-21T10:58:01.571Z,3.6
2018-06-21T11:03:01.408Z,3.4
2018-06-21T11:08:01.433Z,3.3
2018-06-21T11:18:01.446Z,3.2
2018-06-21T11:23:01.453Z,3.4
2018-06-21T11:28:11.745Z,3.8
2018-06-21T11:33:02.412Z,4.0
2018-06-21T11:43:02.384Z,4.3
2018-06-21T11:48:01.446Z,4.5
2018-06-21T11:53:02.400Z,4.4
2018-06-21T11:58:01.888Z,4.4
2018-06-21T12:03:06.374Z,5.2
2018-06-21T12:08:01.510Z,5.4
2018-06-21T12:23:01.890Z,5.7
2018-06-21T12:28:02.232Z,4.9
2018-06-21T12:33:01.389Z,4.5
2018-06-21T12:38:01.595Z,3.8
2018-06-21T12:48:01.500Z,3.6
2018-06-21T12:58:01.542Z,3.2
2018-06-21T13:03:01.345Z,3.4
2018-06-21T13:08:01.470Z,3.2
2018-06-21T13:30:01.278Z,4.0
2018-06-21T13:35:01.482Z,3.5
2018-06-21T13:40:01.278Z,3.3
2018-06-21T13:45:01.477Z,3.5
2018-06-21T13:50:01.394Z,3.6
2018-06-21T14:00:01.196Z,3.8
2018-06-21T14:05:01.168Z,4.2
2018-06-21T14:15:01.332Z,4.0
2018-06-21T14:20:01.326Z,4.2
2018-06-21T14:25:01.226Z,4.0
2018-06-21T14:30:01.346Z,3.9
2018-06-21T14:45:01.282Z,3.5
2018-06-21T14:50:01.223Z,3.3
2018-06-21T14:55:01.244Z,3.2
2018-06-21T15:00:01.283Z,3.2
2018-06-21T15:10:06.324Z,3.2
2018-06-21T15:15:07.324Z,3.5
2018-06-21T15:20:01.995Z,3.6
2018-06-21T15:25:01.350Z,3.7
2018-06-21T15:30:01.327Z,3.9
2018-06-21T15:35:01.296Z,4.0
2018-06-21T15:40:06.400Z,4.1
2018-06-21T15:45:06.246Z,3.8
2018-06-21T15:50:01.279Z,3.6
2018-06-21T15:55:02.241Z,3.4
2018-06-21T16:00:01.440Z,3.2
2018-06-21T16:05:01.319Z,3.0
2018-06-21T16:15:01.448Z,3.0
2018-06-21T16:20:01.322Z,3.2
2018-06-21T16:25:01.268Z,3.4
2018-06-21T16:30:02.320Z,3.3
2018-06-21T16:35:01.259Z,3.4
2018-06-21T16:40:01.335Z,3.5
2018-06-21T16:45:01.318Z,3.4
2018-06-21T16:50:01.310Z,3.2
2018-06-21T16:55:02.301Z,3.2
2018-06-21T17:00:01.466Z,3.5
2018-06-21T17:05:01.333Z,3.6
2018-06-21T17:15:02.429Z,3.5
2018-06-21T17:20:07.624Z,3.5
2018-06-21T17:25:01.552Z,3.3
2018-06-21T17:30:01.439Z,3.2
2018-06-21T17:40:01.390Z,3.4
2018-06-21T17:45:01.265Z,3.4
2018-06-21T17:50:01.421Z,3.1
2018-06-21T17:55:06.299Z,3.3
2018-06-21T18:00:01.488Z,3.3
2018-06-21T18:05:01.360Z,3.0
2018-06-21T18:10:01.487Z,2.8
2018-06-21T18:15:01.372Z,2.6
2018-06-21T18:20:02.642Z,2.5
2018-06-21T18:25:01.330Z,2.6
2018-06-21T18:30:01.493Z,2.8
2018-06-21T18:40:06.884Z,3.2
2018-06-21T18:45:06.344Z,3.0
2018-06-21T18:50:01.308Z,2.9
2018-06-21T19:00:01.416Z,2.8
2018-06-21T19:05:01.385Z,3.0
2018-06-21T19:15:01.420Z,3.2
2018-06-21T19:20:01.459Z,3.0
2018-06-21T19:25:01.419Z,3.0
2018-06-21T19:30:01.674Z,3.2
2018-06-21T19:40:06.405Z,3.4
2018-06-21T19:45:01.337Z,3.6
2018-06-21T19:55:01.413Z,3.0
2018-06-21T20:00:01.566Z,3.0
2018-06-21T20:05:01.417Z,2.9
2018-06-21T20:15:06.482Z,3.0
2018-06-21T20:20:12.448Z,3.4
2018-06-21T20:30:02.348Z,3.7
2018-06-21T20:35:01.429Z,4.2
2018-06-21T20:40:01.369Z,4.4
2018-06-21T20:45:01.345Z,4.4
2018-06-21T20:50:01.359Z,4.3
2018-06-21T20:55:06.622Z,4.1
2018-06-21T21:00:06.508Z,3.7
2018-06-21T21:20:00.843Z,2.4
2018-06-21T21:25:01.901Z,3.2
2018-06-21T21:30:05.840Z,3.8
2018-06-21T21:35:00.874Z,4.0
2018-06-21T21:45:00.877Z,4.1
2018-06-21T21:55:01.075Z,4.2
2018-06-21T22:00:00.948Z,4.0
2018-06-21T22:10:05.953Z,4.4
2018-06-21T22:15:05.828Z,4.3
2018-06-21T22:20:01.046Z,4.1
2018-06-21T22:25:00.829Z,4.3
2018-06-21T22:30:00.948Z,4.4
2018-06-21T22:35:01.868Z,4.1
2018-06-21T22:40:00.999Z,4.0
2018-06-21T22:45:05.823Z,4.0
2018-06-21T22:50:00.872Z,3.9
2018-06-21T22:55:00.783Z,4.0
2018-06-21T23:00:00.877Z,3.9
2018-06-21T23:05:00.856Z,3.7
2018-06-21T23:10:00.841Z,4.2
2018-06-21T23:15:01.950Z,4.2
2018-06-21T23:20:00.926Z,4.0
2018-06-21T23:25:05.889Z,4.2
2018-06-21T23:30:00.923Z,4.7
2018-06-21T23:35:00.829Z,4.1
2018-06-21T23:40:00.995Z,3.9
2018-06-21T23:45:01.669Z,4.1
2018-06-21T23:55:01.593Z,3.5
